Time;durP1;ratioP1;P1;durP2;ratioP2;P2;SDS_P1;SDS_P2;PMS_P1;PMS_P2;Temp;Humidity;BMP_temperature;BMP_pressure;BME280_temperature;BME280_humidity;BME280_pressure;Samples;Min_cycle;Max_cycle;Signal;HPM_P1;HPM_P2
2022/08/12 00:44:22;;;;;;;2.00;1.83;;;;;;;;;;5036351;28;20025;-68
2022/08/12 00:46:52;;;;;;;1.70;1.60;;;;;;;;;;5036609;28;20350;-68
2022/08/12 00:49:19;;;;;;;1.90;1.80;;;;;;;;;;5036244;28;20061;-68
2022/08/12 00:54:29;;;;;;;1.95;1.75;;;;;;;;;;5036696;28;20025;-68
2022/08/12 00:56:56;;;;;;;2.33;1.85;;;;;;;;;;5036350;28;20044;-68
2022/08/12 00:59:22;;;;;;;2.45;1.60;;;;;;;;;;5034836;28;20029;-68
2022/08/12 01:01:48;;;;;;;2.35;1.63;;;;;;;;;;5036015;28;20055;-68
2022/08/12 01:12:32;;;;;;;1.80;1.70;;;;;;;;;;5035773;28;20477;-68
2022/08/12 01:14:58;;;;;;;1.75;1.65;;;;;;;;;;5036056;28;20026;-68
2022/08/12 01:17:24;;;;;;;2.63;1.70;;;;;;;;;;5035961;28;20041;-68
2022/08/12 01:19:51;;;;;;;3.13;1.80;;;;;;;;;;5035849;28;20018;-68
2022/08/12 01:22:29;;;;;;;1.80;1.70;;;;;;;;;;5034503;28;20152;-68
2022/08/12 01:25:03;;;;;;;1.75;1.60;;;;;;;;;;5036358;28;20396;-68
2022/08/12 01:27:32;;;;;;;2.05;1.70;;;;;;;;;;5036077;28;20037;-68
2022/08/12 01:29:58;;;;;;;2.10;1.90;;;;;;;;;;5036055;28;20021;-68
2022/08/12 01:32:25;;;;;;;2.90;2.13;;;;;;;;;;5035736;28;20033;-69
2022/08/12 01:35:11;;;;;;;2.55;2.35;;;;;;;;;;5035708;28;20028;-68
2022/08/12 01:37:47;;;;;;;2.28;2.08;;;;;;;;;;5035900;28;20025;-68
2022/08/12 01:40:17;;;;;;;2.10;1.92;;;;;;;;;;5035257;28;20529;-68
2022/08/12 01:42:46;;;;;;;3.70;1.83;;;;;;;;;;5035569;28;20028;-68
2022/08/12 01:45:12;;;;;;;1.90;1.80;;;;;;;;;;5035255;28;20030;-68
2022/08/12 01:48:00;;;;;;;2.42;1.63;;;;;;;;;;5035191;28;20017;-68
2022/08/12 01:50:35;;;;;;;2.15;1.90;;;;;;;;;;5035371;28;20029;-68
2022/08/12 01:53:11;;;;;;;2.20;2.00;;;;;;;;;;5034840;28;20046;-68
2022/08/12 01:55:38;;;;;;;2.40;2.20;;;;;;;;;;5035181;28;20442;-68
2022/08/12 01:58:14;;;;;;;2.50;2.17;;;;;;;;;;5035272;28;20044;-68
2022/08/12 02:00:47;;;;;;;1.88;1.77;;;;;;;;;;5035445;28;20033;-68
2022/08/12 02:03:21;;;;;;;1.70;1.60;;;;;;;;;;5035140;28;20049;-68
2022/08/12 02:11:31;;;;;;;3.60;1.58;;;;;;;;;;5035209;28;20037;-68
2022/08/12 02:14:05;;;;;;;2.20;2.00;;;;;;;;;;5034949;28;20466;-68
2022/08/12 02:16:45;;;;;;;2.22;1.60;;;;;;;;;;5034558;28;20033;-68
2022/08/12 02:19:11;;;;;;;;;;;;;;;;;;5035223;28;20059;-68
2022/08/12 02:21:38;;;;;;;2.23;1.60;;;;;;;;;;5034811;28;20357;-68
2022/08/12 02:24:05;;;;;;;1.73;1.60;;;;;;;;;;5033151;28;20508;-68
2022/08/12 02:26:32;;;;;;;1.60;1.50;;;;;;;;;;5034754;28;20021;-68
2022/08/12 02:28:58;;;;;;;1.73;1.40;;;;;;;;;;5033516;28;20104;-68
2022/08/12 02:31:25;;;;;;;2.25;1.50;;;;;;;;;;5034261;28;20053;-68
2022/08/12 02:33:51;;;;;;;1.60;1.50;;;;;;;;;;5034320;28;20045;-68
2022/08/12 02:36:17;;;;;;;1.83;1.73;;;;;;;;;;5034485;28;20021;-68
2022/08/12 02:38:43;;;;;;;1.73;1.63;;;;;;;;;;5034270;28;20060;-68
2022/08/12 02:41:10;;;;;;;2.22;1.70;;;;;;;;;;5034453;28;20424;-67
2022/08/12 02:43:40;;;;;;;2.25;1.42;;;;;;;;;;5034119;28;20032;-68
2022/08/12 02:46:07;;;;;;;2.13;1.70;;;;;;;;;;5034118;28;20025;-68
2022/08/12 02:48:33;;;;;;;1.63;1.52;;;;;;;;;;5034636;28;20064;-68
2022/08/12 02:51:02;;;;;;;3.47;1.75;;;;;;;;;;5034104;28;20068;-67
2022/08/12 02:53:27;;;;;;;1.85;1.75;;;;;;;;;;5034236;28;20120;-68
2022/08/12 02:55:53;;;;;;;1.73;1.63;;;;;;;;;;5034127;28;20108;-68
2022/08/12 02:58:19;;;;;;;1.70;1.60;;;;;;;;;;5033898;28;20466;-68
2022/08/12 03:00:45;;;;;;;2.13;1.60;;;;;;;;;;5033889;28;20021;-68
2022/08/12 03:03:11;;;;;;;1.60;1.50;;;;;;;;;;5033881;28;20048;-68
2022/08/12 03:05:50;;;;;;;1.65;1.55;;;;;;;;;;5034064;28;20029;-68
2022/08/12 03:08:18;;;;;;;1.73;1.50;;;;;;;;;;5033991;28;20470;-68
2022/08/12 03:10:46;;;;;;;1.88;1.77;;;;;;;;;;5034014;28;20440;-67
2022/08/12 03:13:14;;;;;;;1.80;1.70;;;;;;;;;;5033941;28;20037;-68
2022/08/12 03:15:39;;;;;;;2.08;1.70;;;;;;;;;;5033888;28;20019;-68
2022/08/12 03:18:14;;;;;;;1.98;1.48;;;;;;;;;;5033899;28;20026;-68
2022/08/12 03:20:39;;;;;;;1.20;1.10;;;;;;;;;;5033596;28;20470;-68
2022/08/12 03:23:08;;;;;;;1.40;1.30;;;;;;;;;;5033898;28;20028;-67
2022/08/12 03:25:36;;;;;;;1.52;1.30;;;;;;;;;;5033531;28;20371;-68
2022/08/12 03:28:02;;;;;;;5.65;1.40;;;;;;;;;;5033528;28;20049;-67
2022/08/12 03:30:32;;;;;;;1.48;1.20;;;;;;;;;;5033778;28;20104;-68
2022/08/12 03:32:59;;;;;;;1.20;1.20;;;;;;;;;;5032249;28;20484;-68
2022/08/12 03:35:26;;;;;;;1.75;1.15;;;;;;;;;;5033332;28;20037;-68
2022/08/12 03:37:55;;;;;;;1.38;1.30;;;;;;;;;;5034004;28;20095;-68
2022/08/12 04:02:18;;;;;;;2.92;1.85;;;;;;;;;;5037376;28;20030;-68
2022/08/12 04:04:46;;;;;;;2.05;1.95;;;;;;;;;;5037692;28;20022;-68
2022/08/12 04:07:12;;;;;;;2.80;2.60;;;;;;;;;;5036193;28;20033;-68
2022/08/12 04:09:39;;;;;;;2.47;2.28;;;;;;;;;;5037305;28;20422;-68
2022/08/12 04:14:50;;;;;;;2.95;1.80;;;;;;;;;;5036893;28;20041;-68
2022/08/12 04:17:16;;;;;;;1.77;1.67;;;;;;;;;;5037346;28;20021;-68
2022/08/12 04:19:41;;;;;;;2.92;1.60;;;;;;;;;;5035688;28;20497;-68
2022/08/12 04:22:08;;;;;;;2.53;1.85;;;;;;;;;;5037039;28;20044;-69
2022/08/12 04:24:34;;;;;;;2.00;1.90;;;;;;;;;;5036844;28;20037;-68
2022/08/12 04:27:00;;;;;;;3.97;1.70;;;;;;;;;;5037215;28;20079;-68
2022/08/12 04:29:25;;;;;;;2.65;1.80;;;;;;;;;;5036891;28;20036;-68
2022/08/12 04:31:54;;;;;;;3.08;1.88;;;;;;;;;;5036846;28;20104;-68
2022/08/12 04:34:22;;;;;;;2.63;1.90;;;;;;;;;;5036816;28;20064;-68
2022/08/12 04:36:47;;;;;;;1.92;1.70;;;;;;;;;;5036702;28;20025;-68
2022/08/12 04:39:13;;;;;;;2.20;2.10;;;;;;;;;;5036469;28;20382;-68
2022/08/12 04:41:39;;;;;;;1.95;1.85;;;;;;;;;;5036406;28;20021;-68
2022/08/12 04:44:05;;;;;;;2.13;1.92;;;;;;;;;;5036607;28;20107;-67
2022/08/12 04:46:31;;;;;;;2.00;1.90;;;;;;;;;;5035088;28;20429;-68
2022/08/12 04:48:56;;;;;;;2.67;1.98;;;;;;;;;;5036299;28;20029;-68
2022/08/12 04:51:22;;;;;;;1.95;1.83;;;;;;;;;;5036263;28;20084;-68
2022/08/12 04:53:49;;;;;;;1.80;1.70;;;;;;;;;;5036191;28;20038;-68
2022/08/12 04:56:14;;;;;;;1.92;1.83;;;;;;;;;;5034936;28;20120;-68
2022/08/12 04:58:40;;;;;;;4.43;1.88;;;;;;;;;;5036353;28;20104;-68
2022/08/12 05:01:06;;;;;;;2.17;1.70;;;;;;;;;;5036066;28;20071;-68
2022/08/12 05:03:34;;;;;;;2.42;2.30;;;;;;;;;;5035956;28;20051;-68
2022/08/12 05:06:00;;;;;;;2.33;2.00;;;;;;;;;;5034767;28;20064;-68
2022/08/12 05:08:25;;;;;;;2.20;2.00;;;;;;;;;;5036176;28;20061;-68
2022/08/12 05:10:51;;;;;;;2.03;1.92;;;;;;;;;;5035918;28;20495;-68
2022/08/12 05:13:20;;;;;;;2.53;2.33;;;;;;;;;;5035835;28;20022;-68
2022/08/12 05:15:46;;;;;;;2.58;2.35;;;;;;;;;;5036002;28;20390;-67
2022/08/12 05:18:12;;;;;;;3.05;2.85;;;;;;;;;;5035765;28;20028;-68
2022/08/12 05:20:39;;;;;;;3.00;2.80;;;;;;;;;;5035993;28;20446;-68
2022/08/12 05:23:05;;;;;;;2.75;2.55;;;;;;;;;;5035965;28;20044;-68
2022/08/12 05:25:31;;;;;;;3.33;3.10;;;;;;;;;;5034371;28;20044;-68
2022/08/12 05:27:56;;;;;;;5.22;3.33;;;;;;;;;;5034401;28;20461;-68
2022/08/12 05:30:21;;;;;;;5.90;3.35;;;;;;;;;;5035792;28;20029;-68
2022/08/12 05:32:47;;;;;;;3.13;2.92;;;;;;;;;;5034228;28;20424;-68
2022/08/12 05:35:14;;;;;;;3.83;3.55;;;;;;;;;;5035761;28;20116;-68
2022/08/12 05:37:39;;;;;;;3.53;3.33;;;;;;;;;;5035623;28;20018;-68
2022/08/12 05:40:05;;;;;;;4.88;3.70;;;;;;;;;;5035607;28;20052;-68
2022/08/12 05:42:31;;;;;;;3.67;3.38;;;;;;;;;;5035355;28;20040;-68
2022/08/12 05:44:57;;;;;;;3.72;3.40;;;;;;;;;;5035252;28;20060;-67
2022/08/12 05:47:22;;;;;;;3.60;3.33;;;;;;;;;;5035510;28;20053;-68
2022/08/12 05:49:47;;;;;;;3.45;3.15;;;;;;;;;;5035132;28;20140;-68
2022/08/12 05:52:13;;;;;;;3.90;3.60;;;;;;;;;;5034981;28;20053;-68
2022/08/12 05:54:43;;;;;;;4.15;3.75;;;;;;;;;;5035332;28;20033;-68
2022/08/12 05:57:10;;;;;;;3.75;3.55;;;;;;;;;;5034982;28;20073;-68
2022/08/12 05:59:37;;;;;;;3.88;3.58;;;;;;;;;;5034940;28;20054;-68
2022/08/12 06:02:06;;;;;;;3.78;3.58;;;;;;;;;;5034036;28;20092;-68
2022/08/12 06:04:32;;;;;;;4.10;3.80;;;;;;;;;;5035175;28;20032;-68
2022/08/12 06:06:57;;;;;;;4.72;3.50;;;;;;;;;;5034183;28;20029;-68
2022/08/12 06:09:25;;;;;;;4.20;3.90;;;;;;;;;;5035332;28;20021;-68
2022/08/12 06:11:50;;;;;;;4.75;3.75;;;;;;;;;;5033508;28;20045;-68
2022/08/12 06:14:16;;;;;;;5.05;4.55;;;;;;;;;;5034979;28;20494;-68
2022/08/12 06:16:42;;;;;;;3.72;3.53;;;;;;;;;;5033665;28;20373;-67
2022/08/12 06:19:09;;;;;;;4.45;4.15;;;;;;;;;;5033724;28;20056;-67
2022/08/12 06:21:36;;;;;;;4.15;3.85;;;;;;;;;;5034513;28;20024;-69
2022/08/12 06:24:02;;;;;;;4.05;3.70;;;;;;;;;;5034758;28;20030;-68
2022/08/12 06:26:28;;;;;;;3.72;3.42;;;;;;;;;;5034743;28;20347;-68
2022/08/12 06:28:56;;;;;;;3.60;3.28;;;;;;;;;;5034382;28;20035;-67
2022/08/12 06:31:21;;;;;;;3.65;3.30;;;;;;;;;;5034661;28;20057;-68
2022/08/12 06:33:47;;;;;;;4.22;3.78;;;;;;;;;;5034310;28;20063;-68
2022/08/12 06:36:15;;;;;;;4.40;4.03;;;;;;;;;;5034205;28;20028;-68
2022/08/12 06:38:41;;;;;;;4.00;3.65;;;;;;;;;;5034450;28;20029;-68
2022/08/12 06:43:53;;;;;;;3.47;3.22;;;;;;;;;;5013431;28;20508;-68
2022/08/12 06:46:22;;;;;;;3.65;3.35;;;;;;;;;;5034102;28;20034;-68
2022/08/12 06:48:55;;;;;;;3.83;3.53;;;;;;;;;;5034378;28;20119;-67
2022/08/12 06:51:22;;;;;;;3.78;3.40;;;;;;;;;;5032644;28;20792;-67
2022/08/12 06:53:48;;;;;;;4.95;3.33;;;;;;;;;;5032748;28;20489;-68
2022/08/12 06:56:13;;;;;;;3.50;3.30;;;;;;;;;;5034157;28;20041;-68
2022/08/12 06:58:39;;;;;;;3.47;3.17;;;;;;;;;;5033859;28;20478;-68
2022/08/12 07:01:05;;;;;;;3.88;3.55;;;;;;;;;;5034433;28;20416;-68
2022/08/12 07:03:31;;;;;;;3.47;3.17;;;;;;;;;;5034174;28;20029;-67
2022/08/12 07:06:01;;;;;;;3.63;3.35;;;;;;;;;;5033807;28;20458;-68
2022/08/12 07:08:28;;;;;;;5.55;3.65;;;;;;;;;;5034086;28;20022;-68
2022/08/12 07:10:58;;;;;;;3.85;3.60;;;;;;;;;;5034030;28;20497;-67
2022/08/12 07:13:34;;;;;;;3.70;3.33;;;;;;;;;;5034017;28;20037;-67
2022/08/12 07:16:01;;;;;;;3.58;3.38;;;;;;;;;;5033891;28;20446;-67
2022/08/12 07:18:31;;;;;;;4.00;3.70;;;;;;;;;;5033678;28;20421;-67
2022/08/12 07:20:57;;;;;;;3.43;3.13;;;;;;;;;;5033929;28;20032;-67
2022/08/12 07:23:23;;;;;;;4.32;3.65;;;;;;;;;;5033906;28;20335;-67
2022/08/12 07:25:48;;;;;;;3.38;3.17;;;;;;;;;;5032338;28;20029;-68
2022/08/12 07:28:18;;;;;;;3.53;3.22;;;;;;;;;;5033548;28;20029;-68
2022/08/12 07:30:45;;;;;;;3.90;3.53;;;;;;;;;;5032954;28;20041;-67
2022/08/12 07:33:11;;;;;;;4.10;3.80;;;;;;;;;;5033497;28;20044;-67
2022/08/12 07:35:49;;;;;;;4.88;3.17;;;;;;;;;;5033416;28;20108;-67
2022/08/12 07:38:24;;;;;;;4.82;3.72;;;;;;;;;;5033742;28;20381;-67
2022/08/12 07:40:53;;;;;;;4.03;3.72;;;;;;;;;;5033978;28;20030;-67
2022/08/12 07:43:19;;;;;;;3.45;3.15;;;;;;;;;;5032126;28;20116;-67
2022/08/12 07:45:44;;;;;;;3.60;3.30;;;;;;;;;;5033656;28;20116;-68
2022/08/12 07:48:10;;;;;;;3.63;3.42;;;;;;;;;;5033673;28;20036;-68
2022/08/12 07:50:35;;;;;;;2.55;2.45;;;;;;;;;;5033315;28;20026;-67
2022/08/12 07:53:01;;;;;;;3.47;3.17;;;;;;;;;;5033205;28;20049;-67
2022/08/12 07:55:27;;;;;;;4.70;3.28;;;;;;;;;;5033794;28;20370;-67
2022/08/12 07:57:57;;;;;;;3.42;3.20;;;;;;;;;;5033319;28;20025;-68
2022/08/12 08:00:23;;;;;;;3.57;2.97;;;;;;;;;;5032899;28;20071;-68
2022/08/12 08:02:51;;;;;;;2.92;2.75;;;;;;;;;;5033558;28;20009;-67
2022/08/12 08:05:18;;;;;;;2.63;2.42;;;;;;;;;;5033190;28;20052;-68
2022/08/12 08:07:43;;;;;;;2.83;2.58;;;;;;;;;;5033315;28;20022;-68
2022/08/12 08:10:10;;;;;;;3.40;3.20;;;;;;;;;;5033113;28;20021;-67
2022/08/12 08:12:55;;;;;;;3.42;3.22;;;;;;;;;;5033409;28;20027;-67
2022/08/12 08:15:22;;;;;;;4.18;2.90;;;;;;;;;;5033427;28;20037;-67
2022/08/12 08:18:15;;;;;;;3.38;3.03;;;;;;;;;;5033004;28;20079;-67
2022/08/12 08:20:43;;;;;;;3.15;2.95;;;;;;;;;;5030962;28;20040;-67
2022/08/12 08:23:10;;;;;;;3.67;3.38;;;;;;;;;;5033335;28;20101;-67
2022/08/12 08:25:37;;;;;;;3.10;2.90;;;;;;;;;;5033032;28;20034;-67
2022/08/12 08:28:11;;;;;;;3.35;3.15;;;;;;;;;;5033023;28;20013;-67
2022/08/12 08:30:37;;;;;;;3.42;3.13;;;;;;;;;;5035021;28;20458;-68
2022/08/12 08:33:04;;;;;;;3.08;2.88;;;;;;;;;;5036915;28;20021;-68
2022/08/12 08:35:29;;;;;;;3.25;2.90;;;;;;;;;;5036808;28;20493;-68
2022/08/12 08:38:05;;;;;;;3.28;3.08;;;;;;;;;;5036486;28;20017;-68
2022/08/12 08:43:15;;;;;;;3.75;3.40;;;;;;;;;;5036634;28;20052;-67
2022/08/12 08:45:40;;;;;;;3.92;3.08;;;;;;;;;;5035165;28;20458;-67
2022/08/12 08:48:05;;;;;;;3.50;3.30;;;;;;;;;;5036578;28;20108;-67
2022/08/12 08:50:31;;;;;;;3.80;3.60;;;;;;;;;;5036620;28;20026;-67
2022/08/12 08:52:58;;;;;;;3.40;3.20;;;;;;;;;;5036085;28;20048;-67
2022/08/12 08:55:24;;;;;;;3.55;3.28;;;;;;;;;;5036489;28;20500;-67
2022/08/12 08:57:52;;;;;;;3.80;3.20;;;;;;;;;;5036375;28;20466;-67
2022/08/12 09:00:19;;;;;;;3.30;3.10;;;;;;;;;;5036351;28;20079;-67
2022/08/12 09:02:46;;;;;;;3.22;3.03;;;;;;;;;;5036341;28;20022;-68
2022/08/12 09:05:11;;;;;;;6.78;3.53;;;;;;;;;;5036318;28;20112;-68
2022/08/12 09:07:43;;;;;;;3.33;3.03;;;;;;;;;;5036541;28;20064;-68
2022/08/12 09:10:09;;;;;;;3.15;2.95;;;;;;;;;;5036263;28;20040;-68
2022/08/12 09:15:20;;;;;;;3.13;2.80;;;;;;;;;;5036110;28;20075;-68
2022/08/12 09:17:54;;;;;;;2.70;2.60;;;;;;;;;;5036016;28;20024;-68
2022/08/12 09:20:21;;;;;;;2.75;2.55;;;;;;;;;;5035718;28;20022;-68
2022/08/12 09:22:46;;;;;;;2.55;2.45;;;;;;;;;;5034637;28;20064;-67
2022/08/12 09:25:12;;;;;;;3.78;3.03;;;;;;;;;;5035643;28;20493;-67
2022/08/12 09:27:37;;;;;;;2.78;2.58;;;;;;;;;;5035602;28;20469;-67
2022/08/12 09:30:03;;;;;;;2.60;2.40;;;;;;;;;;5036130;28;20108;-67
2022/08/12 09:32:28;;;;;;;2.63;2.35;;;;;;;;;;5034273;28;20087;-67
2022/08/12 09:34:53;;;;;;;2.58;2.38;;;;;;;;;;5034180;28;20112;-67
2022/08/12 09:37:18;;;;;;;2.85;2.65;;;;;;;;;;5035151;28;20125;-68
2022/08/12 09:39:44;;;;;;;2.90;2.60;;;;;;;;;;5035379;28;20037;-67
2022/08/12 09:47:44;;;;;;;2.90;2.70;;;;;;;;;;5033957;28;20397;-67
2022/08/12 09:50:09;;;;;;;2.80;2.60;;;;;;;;;;5035456;28;20061;-67
2022/08/12 09:52:35;;;;;;;2.60;2.40;;;;;;;;;;5034990;28;20083;-67
2022/08/12 09:55:01;;;;;;;3.03;2.83;;;;;;;;;;5035106;28;20037;-67
2022/08/12 09:57:26;;;;;;;4.20;2.70;;;;;;;;;;5035264;28;20462;-67
2022/08/12 09:59:52;;;;;;;3.00;2.80;;;;;;;;;;5035281;28;20028;-62
2022/08/12 10:02:17;;;;;;;2.92;2.72;;;;;;;;;;5034978;28;20478;-62
2022/08/12 10:04:45;;;;;;;3.08;2.80;;;;;;;;;;5035179;28;20024;-62
2022/08/12 10:07:10;;;;;;;2.85;2.60;;;;;;;;;;5033916;28;20014;-62
2022/08/12 10:09:36;;;;;;;2.80;2.67;;;;;;;;;;5035050;28;20034;-62
2022/08/12 10:14:45;;;;;;;2.90;2.70;;;;;;;;;;5034958;28;20033;-62
2022/08/12 10:17:10;;;;;;;3.25;2.70;;;;;;;;;;5034591;28;20108;-62
2022/08/12 10:19:38;;;;;;;3.50;2.78;;;;;;;;;;5034891;28;20040;-62
2022/08/12 10:22:04;;;;;;;2.80;2.60;;;;;;;;;;5034870;28;20029;-62
2022/08/12 10:24:30;;;;;;;3.13;2.70;;;;;;;;;;5034846;28;20104;-62
2022/08/12 10:29:45;;;;;;;3.13;2.92;;;;;;;;;;5034966;28;20040;-62
2022/08/12 10:32:16;;;;;;;2.83;2.63;;;;;;;;;;5033160;28;20040;-62
2022/08/12 10:34:41;;;;;;;3.20;2.83;;;;;;;;;;5033481;28;20040;-62
2022/08/12 10:37:07;;;;;;;3.35;2.83;;;;;;;;;;5034781;28;20022;-62
2022/08/12 10:39:36;;;;;;;4.55;3.20;;;;;;;;;;5034292;28;20021;-62
2022/08/12 10:44:46;;;;;;;3.50;3.30;;;;;;;;;;5032880;28;20025;-62
2022/08/12 10:47:12;;;;;;;2.92;2.70;;;;;;;;;;5034145;28;20429;-62
2022/08/12 10:49:38;;;;;;;3.35;3.05;;;;;;;;;;5033200;28;20029;-62
2022/08/12 10:52:04;;;;;;;3.75;3.25;;;;;;;;;;5032669;28;20485;-62
2022/08/12 10:54:30;;;;;;;2.50;2.35;;;;;;;;;;5033157;28;20033;-62
2022/08/12 10:56:56;;;;;;;2.67;2.47;;;;;;;;;;5034395;28;20079;-62
2022/08/12 10:59:23;;;;;;;6.28;2.95;;;;;;;;;;5034192;28;20032;-62
2022/08/12 11:01:49;;;;;;;3.22;3.03;;;;;;;;;;5034467;28;20021;-62
2022/08/12 11:04:15;;;;;;;2.92;2.80;;;;;;;;;;5032695;28;20478;-62
2022/08/12 11:06:46;;;;;;;3.20;3.10;;;;;;;;;;5034139;28;20030;-62
2022/08/12 11:09:19;;;;;;;3.47;2.90;;;;;;;;;;5034079;28;20036;-62
2022/08/12 11:11:48;;;;;;;3.03;2.83;;;;;;;;;;5034336;28;20033;-62
2022/08/12 11:14:16;;;;;;;3.30;2.55;;;;;;;;;;5033774;28;20112;-62
2022/08/12 11:16:42;;;;;;;2.70;2.55;;;;;;;;;;5016028;28;20052;-62
2022/08/12 11:19:07;;;;;;;3.92;2.65;;;;;;;;;;5033976;28;20030;-62
2022/08/12 11:21:33;;;;;;;3.00;2.80;;;;;;;;;;5033974;28;20021;-62
2022/08/12 11:23:58;;;;;;;3.15;2.95;;;;;;;;;;5033837;28;20025;-62
2022/08/12 11:26:24;;;;;;;2.45;2.20;;;;;;;;;;5033555;28;20056;-62
2022/08/12 11:28:49;;;;;;;3.75;2.67;;;;;;;;;;5033818;28;20112;-62
2022/08/12 11:31:15;;;;;;;2.00;1.90;;;;;;;;;;5034059;28;20072;-62
2022/08/12 11:33:41;;;;;;;2.53;2.38;;;;;;;;;;5033494;28;20512;-62
2022/08/12 11:36:07;;;;;;;2.97;2.78;;;;;;;;;;5032152;28;20374;-62
2022/08/12 11:38:32;;;;;;;2.50;2.30;;;;;;;;;;5034034;28;20017;-62
2022/08/12 11:40:58;;;;;;;2.78;2.60;;;;;;;;;;5033459;28;20028;-62
2022/08/12 11:43:23;;;;;;;2.58;2.47;;;;;;;;;;5033404;28;20025;-62
2022/08/12 11:45:48;;;;;;;1.95;1.85;;;;;;;;;;5033672;28;20374;-62
2022/08/12 11:48:15;;;;;;;4.43;2.60;;;;;;;;;;5033619;28;20136;-62
2022/08/12 11:50:43;;;;;;;2.63;2.53;;;;;;;;;;5033696;28;20101;-62
2022/08/12 11:53:09;;;;;;;2.75;2.33;;;;;;;;;;5033627;28;20056;-62
2022/08/12 11:55:34;;;;;;;3.22;2.50;;;;;;;;;;5033360;28;20482;-62
2022/08/12 11:58:00;;;;;;;2.88;2.65;;;;;;;;;;5033308;28;20037;-62
2022/08/12 12:00:25;;;;;;;2.60;2.40;;;;;;;;;;5033495;28;20377;-62
2022/08/12 12:02:51;;;;;;;2.60;2.40;;;;;;;;;;5031997;28;20030;-62
2022/08/12 12:05:16;;;;;;;2.30;2.20;;;;;;;;;;5034231;28;20021;-62
2022/08/12 12:07:42;;;;;;;2.70;2.60;;;;;;;;;;5037643;28;20458;-62
2022/08/12 12:10:08;;;;;;;2.88;2.58;;;;;;;;;;5037090;28;20024;-62
2022/08/12 12:12:36;;;;;;;2.90;2.55;;;;;;;;;;5037000;28;20076;-62
2022/08/12 12:15:02;;;;;;;3.20;3.00;;;;;;;;;;5037517;28;20049;-62
2022/08/12 12:17:28;;;;;;;5.47;3.08;;;;;;;;;;5036847;28;20049;-62
2022/08/12 12:19:53;;;;;;;3.13;2.80;;;;;;;;;;5036891;28;20477;-62
2022/08/12 12:22:19;;;;;;;2.75;2.55;;;;;;;;;;5036814;28;20029;-62
2022/08/12 12:24:46;;;;;;;2.40;2.30;;;;;;;;;;5037352;28;20021;-62
2022/08/12 12:27:11;;;;;;;2.63;2.53;;;;;;;;;;5036735;28;20031;-62
2022/08/12 12:29:37;;;;;;;4.22;2.20;;;;;;;;;;5036963;28;20022;-62
2022/08/12 12:32:02;;;;;;;2.25;2.15;;;;;;;;;;5036860;28;20033;-62
2022/08/12 12:34:27;;;;;;;2.25;2.05;;;;;;;;;;5036613;28;20025;-62
2022/08/12 12:36:53;;;;;;;2.17;2.08;;;;;;;;;;5036769;28;20084;-62
2022/08/12 12:39:18;;;;;;;3.85;2.40;;;;;;;;;;5036527;28;20369;-62
2022/08/12 12:41:44;;;;;;;2.58;2.38;;;;;;;;;;5036498;28;20112;-62
2022/08/12 12:44:09;;;;;;;2.70;2.50;;;;;;;;;;5036678;28;20088;-62
2022/08/12 12:46:35;;;;;;;2.40;2.30;;;;;;;;;;5035124;28;20144;-62
2022/08/12 12:49:00;;;;;;;3.25;2.35;;;;;;;;;;5035469;28;20424;-62
2022/08/12 12:51:26;;;;;;;4.10;2.33;;;;;;;;;;5034853;28;20497;-62
2022/08/12 12:53:51;;;;;;;2.50;2.40;;;;;;;;;;5036551;28;20040;-62
2022/08/12 12:56:21;;;;;;;2.83;2.55;;;;;;;;;;5035468;28;20072;-62
2022/08/12 12:58:50;;;;;;;2.50;2.40;;;;;;;;;;5036189;28;20086;-62
2022/08/12 13:01:17;;;;;;;2.97;2.65;;;;;;;;;;5036475;28;20018;-62
2022/08/12 13:03:44;;;;;;;2.55;2.45;;;;;;;;;;5036415;28;20036;-62
2022/08/12 13:06:10;;;;;;;2.92;2.30;;;;;;;;;;5036055;28;20017;-62
2022/08/12 13:08:36;;;;;;;2.88;2.42;;;;;;;;;;5036230;28;20033;-62
2022/08/12 13:11:03;;;;;;;3.05;2.70;;;;;;;;;;5036284;28;20021;-62
2022/08/12 13:13:30;;;;;;;2.53;2.42;;;;;;;;;;5036217;28;20029;-62
2022/08/12 13:15:56;;;;;;;2.58;2.28;;;;;;;;;;5035985;28;20120;-62
2022/08/12 13:18:22;;;;;;;2.45;2.35;;;;;;;;;;5035969;28;20504;-62
2022/08/12 13:20:47;;;;;;;2.78;2.60;;;;;;;;;;5036085;28;20024;-62
2022/08/12 13:23:18;;;;;;;4.47;2.80;;;;;;;;;;5034511;28;20481;-62
2022/08/12 13:25:44;;;;;;;2.88;2.67;;;;;;;;;;5036246;28;20033;-63
2022/08/12 13:28:23;;;;;;;2.70;2.60;;;;;;;;;;5034773;28;20017;-62
2022/08/12 13:30:51;;;;;;;3.25;2.95;;;;;;;;;;5035883;28;20021;-62
2022/08/12 13:33:21;;;;;;;3.60;3.40;;;;;;;;;;5035821;28;20018;-62
2022/08/12 13:35:49;;;;;;;3.20;3.10;;;;;;;;;;5035624;28;20080;-62
2022/08/12 13:38:14;;;;;;;3.40;3.10;;;;;;;;;;5035759;28;20018;-62
2022/08/12 13:40:39;;;;;;;3.22;2.92;;;;;;;;;;5035680;28;20079;-62
2022/08/12 13:43:05;;;;;;;3.30;3.10;;;;;;;;;;5035448;28;20079;-63
2022/08/12 13:45:32;;;;;;;3.40;3.10;;;;;;;;;;5035184;28;20037;-62
2022/08/12 13:47:58;;;;;;;3.15;2.95;;;;;;;;;;5035484;28;20585;-62
2022/08/12 13:50:28;;;;;;;4.15;3.30;;;;;;;;;;5035361;28;20033;-62
2022/08/12 13:52:53;;;;;;;4.30;3.38;;;;;;;;;;5036075;28;20058;-62
2022/08/12 13:55:21;;;;;;;3.88;3.47;;;;;;;;;;5035679;28;20025;-62
2022/08/12 13:57:47;;;;;;;3.72;3.53;;;;;;;;;;5033711;28;20029;-62
2022/08/12 14:00:13;;;;;;;3.75;3.45;;;;;;;;;;5035292;28;20048;-62
2022/08/12 14:02:38;;;;;;;3.75;3.55;;;;;;;;;;5035284;28;20021;-62
2022/08/12 14:05:08;;;;;;;3.83;3.53;;;;;;;;;;5034902;28;20145;-62
2022/08/12 14:07:52;;;;;;;5.78;3.67;;;;;;;;;;5033688;28;20103;-62
2022/08/12 14:10:37;;;;;;;4.03;3.83;;;;;;;;;;5035099;28;20057;-62
2022/08/12 14:13:04;;;;;;;3.58;3.38;;;;;;;;;;5035031;28;20029;-62
2022/08/12 14:15:30;;;;;;;3.85;3.65;;;;;;;;;;5035007;28;20462;-62
2022/08/12 14:18:03;;;;;;;3.90;3.70;;;;;;;;;;5034565;28;20037;-62
2022/08/12 14:20:29;;;;;;;3.50;3.30;;;;;;;;;;5035182;28;20116;-62
2022/08/12 14:22:56;;;;;;;2.70;2.60;;;;;;;;;;5034873;28;20061;-62
2022/08/12 14:25:23;;;;;;;3.60;2.85;;;;;;;;;;5034864;28;20036;-62
2022/08/12 14:27:48;;;;;;;3.63;3.42;;;;;;;;;;5034502;28;20063;-62
2022/08/12 14:30:14;;;;;;;5.68;3.60;;;;;;;;;;5034467;28;20037;-62
2022/08/12 14:32:39;;;;;;;3.85;3.55;;;;;;;;;;5034705;28;20032;-62
2022/08/12 14:35:09;;;;;;;5.05;4.20;;;;;;;;;;5034910;28;20037;-62
2022/08/12 14:37:38;;;;;;;4.10;3.70;;;;;;;;;;5033031;28;20033;-62
2022/08/12 14:40:04;;;;;;;3.47;3.28;;;;;;;;;;5034312;28;20104;-62
2022/08/12 14:42:29;;;;;;;3.67;3.38;;;;;;;;;;5032988;28;20393;-62
2022/08/12 14:44:57;;;;;;;5.43;4.97;;;;;;;;;;5034169;28;20025;-62
2022/08/12 14:47:23;;;;;;;4.85;4.55;;;;;;;;;;5034451;28;20021;-62
2022/08/12 14:49:49;;;;;;;3.88;3.67;;;;;;;;;;5034376;28;20014;-63
2022/08/12 14:52:14;;;;;;;3.95;3.75;;;;;;;;;;5032830;28;20049;-62
2022/08/12 14:54:42;;;;;;;12.68;11.05;;;;;;;;;;5034319;28;20032;-62
2022/08/12 14:57:09;;;;;;;6.22;5.75;;;;;;;;;;5034180;28;20040;-62
2022/08/12 15:02:19;;;;;;;4.30;4.00;;;;;;;;;;5033870;28;20453;-62
2022/08/12 15:04:46;;;;;;;3.25;3.05;;;;;;;;;;5034184;28;20071;-62
2022/08/12 15:07:12;;;;;;;2.60;2.50;;;;;;;;;;5033003;28;20080;-62
2022/08/12 15:09:38;;;;;;;3.55;3.25;;;;;;;;;;5034376;28;20025;-62
2022/08/12 15:12:06;;;;;;;5.05;3.00;;;;;;;;;;5034107;28;20048;-62
2022/08/12 15:14:31;;;;;;;2.95;2.70;;;;;;;;;;5033766;28;20143;-63
2022/08/12 15:16:57;;;;;;;2.67;2.58;;;;;;;;;;5033899;28;20483;-62
2022/08/12 15:19:23;;;;;;;5.93;4.40;;;;;;;;;;5033760;28;20022;-62
2022/08/12 15:21:48;;;;;;;11.10;6.43;;;;;;;;;;5033983;28;20026;-62
2022/08/12 15:24:13;;;;;;;3.85;3.25;;;;;;;;;;5034203;28;20051;-62
2022/08/12 15:26:41;;;;;;;4.88;3.92;;;;;;;;;;5032456;28;20473;-62
2022/08/12 15:29:06;;;;;;;2.42;2.00;;;;;;;;;;5032400;28;20021;-62
2022/08/12 15:31:32;;;;;;;2.25;2.05;;;;;;;;;;5034057;28;20092;-62
2022/08/12 15:33:57;;;;;;;2.05;1.95;;;;;;;;;;5034054;28;20022;-62
2022/08/12 15:36:24;;;;;;;2.13;1.98;;;;;;;;;;5033407;28;20033;-62
2022/08/12 15:38:50;;;;;;;2.42;2.33;;;;;;;;;;5034020;28;20026;-62
2022/08/12 15:41:20;;;;;;;2.30;2.20;;;;;;;;;;5036444;28;20033;-62
2022/08/12 15:43:51;;;;;;;2.30;2.20;;;;;;;;;;5037913;28;20022;-62
2022/08/12 15:46:17;;;;;;;2.30;2.20;;;;;;;;;;5038138;28;20041;-62
2022/08/12 15:48:45;;;;;;;2.50;2.30;;;;;;;;;;5037506;28;20079;-62
2022/08/12 15:51:11;;;;;;;2.70;2.53;;;;;;;;;;5037250;28;20094;-62
2022/08/12 15:56:22;;;;;;;3.00;2.42;;;;;;;;;;5037804;28;20029;-62
2022/08/12 15:58:48;;;;;;;2.60;2.50;;;;;;;;;;5037568;28;20480;-62
2022/08/12 16:01:14;;;;;;;3.80;3.47;;;;;;;;;;5037278;28;20033;-62
2022/08/12 16:03:42;;;;;;;6.03;4.05;;;;;;;;;;5037221;28;20385;-62
2022/08/12 16:06:08;;;;;;;4.20;3.97;;;;;;;;;;5035951;28;20032;-62
2022/08/12 16:08:38;;;;;;;4.07;3.78;;;;;;;;;;5037123;28;20140;-62
2022/08/12 16:11:04;;;;;;;4.70;4.30;;;;;;;;;;5037409;28;20033;-62
2022/08/12 16:13:29;;;;;;;4.68;4.40;;;;;;;;;;5037585;28;20044;-62
2022/08/12 16:15:54;;;;;;;4.68;4.38;;;;;;;;;;5036854;28;20051;-62
2022/08/12 16:18:20;;;;;;;4.97;4.68;;;;;;;;;;5036961;28;20135;-62
2022/08/12 16:20:46;;;;;;;5.40;5.00;;;;;;;;;;5037183;28;20083;-62
2022/08/12 16:23:13;;;;;;;10.75;6.07;;;;;;;;;;5019118;28;20521;-62
2022/08/12 16:25:39;;;;;;;5.85;5.45;;;;;;;;;;5036814;28;20025;-62
2022/08/12 16:28:08;;;;;;;5.88;5.30;;;;;;;;;;5037062;28;20036;-62
2022/08/12 16:30:35;;;;;;;5.20;4.70;;;;;;;;;;5036983;28;20034;-62
2022/08/12 16:33:13;;;;;;;5.50;5.10;;;;;;;;;;5036973;28;20048;-62
2022/08/12 16:35:39;;;;;;;5.75;5.32;;;;;;;;;;5036879;28;20120;-62